Terminal Aerodrome Forecast
Issued by NWS Quad Cities IA IL

Home | Current Version | Previous Version | Text Only | Print | Product List | Glossary Off
Versions: 1 2 3 4 5 6 7 8 9 10 11 12 13 14 15 16 17 18 19 20 21 22 23 24 25 26

000
FTUS43 KDVN 262337
TAFDBQ
TAF
KDBQ 262337Z 2700/2724 06015KT P6SM OVC025
     FM270700 07018G25KT P6SM OVC025
     FM271400 08018G28KT P6SM VCSH OVC050
     FM271700 08020G30KT 4SM -TSRA OVC025CB
     FM272000 09020G30KT P6SM VCSH OVC025=

USA.gov is the U.S. government's official web portal to all federal, state and local government web resources and services.